sensor_id;sensor_type;location;lat;lon;timestamp;P1;durP1;ratioP1;P2;durP2;ratioP2
20383;SDS011;46458;50.966;7.002;2023-04-03T00:00:15;4.17;;;3.00;;
20383;SDS011;46458;50.966;7.002;2023-04-03T00:02:48;7.57;;;3.50;;
20383;SDS011;46458;50.966;7.002;2023-04-03T00:05:16;3.87;;;3.43;;
20383;SDS011;46458;50.966;7.002;2023-04-03T00:07:45;4.53;;;3.60;;
20383;SDS011;46458;50.966;7.002;2023-04-03T00:10:15;4.80;;;3.20;;
20383;SDS011;46458;50.966;7.002;2023-04-03T00:12:44;4.40;;;3.10;;
20383;SDS011;46458;50.966;7.002;2023-04-03T00:15:13;5.70;;;3.20;;
20383;SDS011;46458;50.966;7.002;2023-04-03T00:17:45;5.87;;;3.60;;
20383;SDS011;46458;50.966;7.002;2023-04-03T00:20:19;4.40;;;3.23;;
20383;SDS011;46458;50.966;7.002;2023-04-03T00:22:48;3.43;;;2.90;;
20383;SDS011;46458;50.966;7.002;2023-04-03T00:25:17;4.97;;;3.33;;
20383;SDS011;46458;50.966;7.002;2023-04-03T00:27:45;4.40;;;3.47;;
20383;SDS011;46458;50.966;7.002;2023-04-03T00:30:15;5.67;;;3.67;;
20383;SDS011;46458;50.966;7.002;2023-04-03T00:32:50;3.93;;;3.00;;
20383;SDS011;46458;50.966;7.002;2023-04-03T00:35:20;7.40;;;3.60;;
20383;SDS011;46458;50.966;7.002;2023-04-03T00:37:51;4.00;;;3.40;;
20383;SDS011;46458;50.966;7.002;2023-04-03T00:40:22;7.50;;;3.30;;
20383;SDS011;46458;50.966;7.002;2023-04-03T00:42:54;3.87;;;3.57;;
20383;SDS011;46458;50.966;7.002;2023-04-03T00:45:26;4.63;;;3.57;;
20383;SDS011;46458;50.966;7.002;2023-04-03T00:48:01;5.47;;;3.50;;
20383;SDS011;46458;50.966;7.002;2023-04-03T00:50:37;4.60;;;3.30;;
20383;SDS011;46458;50.966;7.002;2023-04-03T00:53:09;4.03;;;3.17;;
20383;SDS011;46458;50.966;7.002;2023-04-03T00:55:42;5.70;;;3.50;;
20383;SDS011;46458;50.966;7.002;2023-04-03T00:58:12;6.73;;;3.60;;
20383;SDS011;46458;50.966;7.002;2023-04-03T01:00:43;4.07;;;3.50;;
20383;SDS011;46458;50.966;7.002;2023-04-03T01:03:19;5.30;;;3.13;;
20383;SDS011;46458;50.966;7.002;2023-04-03T01:05:48;8.20;;;3.30;;
20383;SDS011;46458;50.966;7.002;2023-04-03T01:08:17;3.73;;;3.30;;
20383;SDS011;46458;50.966;7.002;2023-04-03T01:10:48;5.00;;;3.73;;
20383;SDS011;46458;50.966;7.002;2023-04-03T01:13:19;5.07;;;3.07;;
20383;SDS011;46458;50.966;7.002;2023-04-03T01:15:53;4.63;;;3.10;;
20383;SDS011;46458;50.966;7.002;2023-04-03T01:18:25;3.87;;;3.10;;
20383;SDS011;46458;50.966;7.002;2023-04-03T01:23:57;3.60;;;2.90;;
20383;SDS011;46458;50.966;7.002;2023-04-03T01:26:33;4.47;;;2.93;;
20383;SDS011;46458;50.966;7.002;2023-04-03T01:29:05;3.17;;;2.90;;
20383;SDS011;46458;50.966;7.002;2023-04-03T01:31:47;4.13;;;2.93;;
20383;SDS011;46458;50.966;7.002;2023-04-03T01:34:18;3.70;;;3.40;;
20383;SDS011;46458;50.966;7.002;2023-04-03T01:36:48;3.40;;;3.10;;
20383;SDS011;46458;50.966;7.002;2023-04-03T01:39:19;5.17;;;3.93;;
20383;SDS011;46458;50.966;7.002;2023-04-03T01:41:51;5.80;;;3.50;;
20383;SDS011;46458;50.966;7.002;2023-04-03T01:44:27;6.50;;;3.60;;
20383;SDS011;46458;50.966;7.002;2023-04-03T01:46:58;5.47;;;3.30;;
20383;SDS011;46458;50.966;7.002;2023-04-03T01:49:30;4.67;;;3.50;;
20383;SDS011;46458;50.966;7.002;2023-04-03T01:52:02;3.60;;;3.23;;
20383;SDS011;46458;50.966;7.002;2023-04-03T01:54:31;4.33;;;3.33;;
20383;SDS011;46458;50.966;7.002;2023-04-03T01:57:00;4.77;;;3.23;;
20383;SDS011;46458;50.966;7.002;2023-04-03T01:59:29;4.47;;;3.67;;
20383;SDS011;46458;50.966;7.002;2023-04-03T02:02:01;4.23;;;3.33;;
20383;SDS011;46458;50.966;7.002;2023-04-03T02:04:30;7.00;;;4.00;;
20383;SDS011;46458;50.966;7.002;2023-04-03T02:06:58;5.73;;;3.40;;
20383;SDS011;46458;50.966;7.002;2023-04-03T02:09:27;4.00;;;3.60;;
20383;SDS011;46458;50.966;7.002;2023-04-03T02:11:56;4.37;;;3.17;;
20383;SDS011;46458;50.966;7.002;2023-04-03T02:14:25;3.73;;;3.07;;
20383;SDS011;46458;50.966;7.002;2023-04-03T02:16:57;4.03;;;3.10;;
20383;SDS011;46458;50.966;7.002;2023-04-03T02:19:28;6.30;;;3.63;;
20383;SDS011;46458;50.966;7.002;2023-04-03T02:21:57;3.83;;;3.27;;
20383;SDS011;46458;50.966;7.002;2023-04-03T02:24:26;3.97;;;3.57;;
20383;SDS011;46458;50.966;7.002;2023-04-03T02:26:55;5.20;;;3.40;;
20383;SDS011;46458;50.966;7.002;2023-04-03T02:29:24;3.93;;;3.20;;
20383;SDS011;46458;50.966;7.002;2023-04-03T02:31:55;6.10;;;3.47;;
20383;SDS011;46458;50.966;7.002;2023-04-03T02:34:24;6.20;;;3.80;;
20383;SDS011;46458;50.966;7.002;2023-04-03T02:36:59;6.57;;;3.80;;
20383;SDS011;46458;50.966;7.002;2023-04-03T02:39:28;5.93;;;3.63;;
20383;SDS011;46458;50.966;7.002;2023-04-03T02:41:58;4.33;;;3.80;;
20383;SDS011;46458;50.966;7.002;2023-04-03T02:44:27;5.43;;;3.73;;
20383;SDS011;46458;50.966;7.002;2023-04-03T02:46:59;4.10;;;3.70;;
20383;SDS011;46458;50.966;7.002;2023-04-03T02:49:28;4.37;;;3.97;;
20383;SDS011;46458;50.966;7.002;2023-04-03T02:52:01;5.33;;;3.67;;
20383;SDS011;46458;50.966;7.002;2023-04-03T02:54:30;4.77;;;3.60;;
20383;SDS011;46458;50.966;7.002;2023-04-03T02:57:03;5.30;;;3.63;;
20383;SDS011;46458;50.966;7.002;2023-04-03T02:59:34;5.10;;;3.70;;
20383;SDS011;46458;50.966;7.002;2023-04-03T03:02:05;3.97;;;3.67;;
20383;SDS011;46458;50.966;7.002;2023-04-03T03:04:35;3.63;;;3.20;;
20383;SDS011;46458;50.966;7.002;2023-04-03T03:07:06;3.90;;;3.53;;
20383;SDS011;46458;50.966;7.002;2023-04-03T03:09:35;6.37;;;3.47;;
20383;SDS011;46458;50.966;7.002;2023-04-03T03:12:05;5.23;;;3.47;;
20383;SDS011;46458;50.966;7.002;2023-04-03T03:14:33;3.73;;;3.27;;
20383;SDS011;46458;50.966;7.002;2023-04-03T03:17:02;4.60;;;3.53;;
20383;SDS011;46458;50.966;7.002;2023-04-03T03:19:35;3.57;;;3.27;;
20383;SDS011;46458;50.966;7.002;2023-04-03T03:22:09;6.27;;;3.33;;
20383;SDS011;46458;50.966;7.002;2023-04-03T03:24:38;3.63;;;2.87;;
20383;SDS011;46458;50.966;7.002;2023-04-03T03:27:11;5.30;;;3.60;;
20383;SDS011;46458;50.966;7.002;2023-04-03T03:29:41;3.70;;;3.40;;
20383;SDS011;46458;50.966;7.002;2023-04-03T03:32:15;4.70;;;3.53;;
20383;SDS011;46458;50.966;7.002;2023-04-03T03:34:44;3.80;;;3.10;;
20383;SDS011;46458;50.966;7.002;2023-04-03T03:37:15;3.10;;;2.80;;
20383;SDS011;46458;50.966;7.002;2023-04-03T03:39:44;3.60;;;2.80;;
20383;SDS011;46458;50.966;7.002;2023-04-03T03:42:13;4.70;;;3.10;;
20383;SDS011;46458;50.966;7.002;2023-04-03T03:44:45;3.30;;;2.70;;
20383;SDS011;46458;50.966;7.002;2023-04-03T03:47:14;3.27;;;2.97;;
20383;SDS011;46458;50.966;7.002;2023-04-03T03:49:43;3.40;;;2.57;;
20383;SDS011;46458;50.966;7.002;2023-04-03T03:52:12;4.17;;;2.40;;
20383;SDS011;46458;50.966;7.002;2023-04-03T03:54:44;6.53;;;2.93;;
20383;SDS011;46458;50.966;7.002;2023-04-03T03:57:14;3.70;;;2.53;;
20383;SDS011;46458;50.966;7.002;2023-04-03T03:59:43;4.73;;;2.73;;
20383;SDS011;46458;50.966;7.002;2023-04-03T04:02:16;2.93;;;2.47;;
20383;SDS011;46458;50.966;7.002;2023-04-03T04:04:50;4.03;;;2.50;;
20383;SDS011;46458;50.966;7.002;2023-04-03T04:07:25;5.73;;;3.00;;
20383;SDS011;46458;50.966;7.002;2023-04-03T04:09:55;5.07;;;2.87;;
20383;SDS011;46458;50.966;7.002;2023-04-03T04:12:27;4.87;;;2.63;;
20383;SDS011;46458;50.966;7.002;2023-04-03T04:14:55;5.07;;;2.50;;
20383;SDS011;46458;50.966;7.002;2023-04-03T04:17:24;5.37;;;2.70;;
20383;SDS011;46458;50.966;7.002;2023-04-03T04:19:54;4.60;;;2.77;;
20383;SDS011;46458;50.966;7.002;2023-04-03T04:22:26;3.63;;;2.20;;
20383;SDS011;46458;50.966;7.002;2023-04-03T04:24:55;4.03;;;2.23;;
20383;SDS011;46458;50.966;7.002;2023-04-03T04:27:24;3.30;;;2.67;;
20383;SDS011;46458;50.966;7.002;2023-04-03T04:29:54;2.97;;;2.03;;
20383;SDS011;46458;50.966;7.002;2023-04-03T04:32:22;3.83;;;2.50;;
20383;SDS011;46458;50.966;7.002;2023-04-03T04:34:52;3.63;;;2.20;;
20383;SDS011;46458;50.966;7.002;2023-04-03T04:37:21;4.23;;;2.20;;
20383;SDS011;46458;50.966;7.002;2023-04-03T04:39:54;3.97;;;2.07;;
20383;SDS011;46458;50.966;7.002;2023-04-03T04:42:24;3.67;;;2.10;;
20383;SDS011;46458;50.966;7.002;2023-04-03T04:44:53;7.80;;;2.33;;
20383;SDS011;46458;50.966;7.002;2023-04-03T04:47:22;3.83;;;1.97;;
20383;SDS011;46458;50.966;7.002;2023-04-03T04:49:51;3.37;;;1.97;;
20383;SDS011;46458;50.966;7.002;2023-04-03T04:52:20;4.03;;;2.10;;
20383;SDS011;46458;50.966;7.002;2023-04-03T04:54:49;3.77;;;2.03;;
20383;SDS011;46458;50.966;7.002;2023-04-03T04:57:21;2.03;;;1.60;;
20383;SDS011;46458;50.966;7.002;2023-04-03T04:59:50;3.27;;;2.07;;
20383;SDS011;46458;50.966;7.002;2023-04-03T05:02:19;4.20;;;2.07;;
20383;SDS011;46458;50.966;7.002;2023-04-03T05:04:48;3.27;;;2.10;;
20383;SDS011;46458;50.966;7.002;2023-04-03T05:07:22;3.57;;;2.00;;
20383;SDS011;46458;50.966;7.002;2023-04-03T05:09:54;2.77;;;1.93;;
20383;SDS011;46458;50.966;7.002;2023-04-03T05:12:23;4.60;;;2.07;;
20383;SDS011;46458;50.966;7.002;2023-04-03T05:14:56;3.90;;;2.20;;
20383;SDS011;46458;50.966;7.002;2023-04-03T05:17:27;4.50;;;2.17;;
20383;SDS011;46458;50.966;7.002;2023-04-03T05:20:00;3.63;;;2.17;;
20383;SDS011;46458;50.966;7.002;2023-04-03T05:22:29;3.87;;;2.00;;
20383;SDS011;46458;50.966;7.002;2023-04-03T05:25:07;2.90;;;2.00;;
20383;SDS011;46458;50.966;7.002;2023-04-03T05:27:39;3.37;;;2.00;;
20383;SDS011;46458;50.966;7.002;2023-04-03T05:30:09;5.30;;;2.30;;
20383;SDS011;46458;50.966;7.002;2023-04-03T05:32:40;3.50;;;2.07;;
20383;SDS011;46458;50.966;7.002;2023-04-03T05:35:15;4.90;;;2.20;;
20383;SDS011;46458;50.966;7.002;2023-04-03T05:37:50;3.30;;;2.43;;
20383;SDS011;46458;50.966;7.002;2023-04-03T05:40:22;4.63;;;2.17;;
20383;SDS011;46458;50.966;7.002;2023-04-03T05:42:54;3.83;;;2.13;;
20383;SDS011;46458;50.966;7.002;2023-04-03T05:45:25;3.90;;;2.30;;
20383;SDS011;46458;50.966;7.002;2023-04-03T05:47:54;3.67;;;1.93;;
20383;SDS011;46458;50.966;7.002;2023-04-03T05:50:23;5.63;;;2.23;;
20383;SDS011;46458;50.966;7.002;2023-04-03T05:52:53;3.70;;;2.23;;
20383;SDS011;46458;50.966;7.002;2023-04-03T05:55:30;2.60;;;2.00;;
20383;SDS011;46458;50.966;7.002;2023-04-03T05:57:58;4.13;;;2.20;;
20383;SDS011;46458;50.966;7.002;2023-04-03T06:00:27;3.50;;;2.23;;
20383;SDS011;46458;50.966;7.002;2023-04-03T06:03:00;3.83;;;2.10;;
20383;SDS011;46458;50.966;7.002;2023-04-03T06:05:29;3.33;;;1.93;;
20383;SDS011;46458;50.966;7.002;2023-04-03T06:08:01;4.13;;;2.53;;
20383;SDS011;46458;50.966;7.002;2023-04-03T06:10:34;3.77;;;2.03;;
20383;SDS011;46458;50.966;7.002;2023-04-03T06:13:05;3.13;;;2.20;;
20383;SDS011;46458;50.966;7.002;2023-04-03T06:15:34;4.73;;;2.00;;
20383;SDS011;46458;50.966;7.002;2023-04-03T06:18:06;3.00;;;2.00;;
20383;SDS011;46458;50.966;7.002;2023-04-03T06:20:35;3.70;;;1.87;;
20383;SDS011;46458;50.966;7.002;2023-04-03T06:23:04;5.53;;;1.90;;
20383;SDS011;46458;50.966;7.002;2023-04-03T06:25:36;2.90;;;2.00;;
20383;SDS011;46458;50.966;7.002;2023-04-03T06:28:05;4.93;;;2.00;;
20383;SDS011;46458;50.966;7.002;2023-04-03T06:30:35;5.57;;;1.83;;
20383;SDS011;46458;50.966;7.002;2023-04-03T06:33:04;3.73;;;2.00;;
20383;SDS011;46458;50.966;7.002;2023-04-03T06:35:33;3.30;;;1.50;;
20383;SDS011;46458;50.966;7.002;2023-04-03T06:38:03;3.73;;;2.03;;
20383;SDS011;46458;50.966;7.002;2023-04-03T06:40:37;3.67;;;1.97;;
20383;SDS011;46458;50.966;7.002;2023-04-03T06:43:06;3.47;;;1.80;;
20383;SDS011;46458;50.966;7.002;2023-04-03T06:45:35;4.00;;;1.90;;
20383;SDS011;46458;50.966;7.002;2023-04-03T06:48:06;3.43;;;1.37;;
20383;SDS011;46458;50.966;7.002;2023-04-03T06:50:37;5.67;;;1.70;;
20383;SDS011;46458;50.966;7.002;2023-04-03T06:53:09;3.03;;;1.60;;
20383;SDS011;46458;50.966;7.002;2023-04-03T06:55:42;2.70;;;1.67;;
20383;SDS011;46458;50.966;7.002;2023-04-03T06:58:12;5.03;;;1.90;;
20383;SDS011;46458;50.966;7.002;2023-04-03T07:00:43;8.10;;;1.87;;
20383;SDS011;46458;50.966;7.002;2023-04-03T07:03:12;5.30;;;1.90;;
20383;SDS011;46458;50.966;7.002;2023-04-03T07:05:41;4.63;;;1.80;;
20383;SDS011;46458;50.966;7.002;2023-04-03T07:08:10;7.47;;;1.70;;
20383;SDS011;46458;50.966;7.002;2023-04-03T07:10:44;3.87;;;1.70;;
20383;SDS011;46458;50.966;7.002;2023-04-03T07:13:13;3.43;;;1.50;;
20383;SDS011;46458;50.966;7.002;2023-04-03T07:15:42;5.20;;;1.50;;
20383;SDS011;46458;50.966;7.002;2023-04-03T07:18:11;3.50;;;1.90;;
20383;SDS011;46458;50.966;7.002;2023-04-03T07:20:39;4.43;;;1.90;;
20383;SDS011;46458;50.966;7.002;2023-04-03T07:23:08;3.53;;;1.60;;
20383;SDS011;46458;50.966;7.002;2023-04-03T07:25:44;3.33;;;1.60;;
20383;SDS011;46458;50.966;7.002;2023-04-03T07:28:14;3.50;;;1.67;;
20383;SDS011;46458;50.966;7.002;2023-04-03T07:30:43;4.03;;;1.40;;
20383;SDS011;46458;50.966;7.002;2023-04-03T07:33:13;6.27;;;1.40;;
20383;SDS011;46458;50.966;7.002;2023-04-03T07:35:43;4.33;;;1.63;;
20383;SDS011;46458;50.966;7.002;2023-04-03T07:38:12;3.07;;;1.53;;
20383;SDS011;46458;50.966;7.002;2023-04-03T07:40:47;4.70;;;1.43;;
20383;SDS011;46458;50.966;7.002;2023-04-03T07:43:18;4.63;;;1.60;;
20383;SDS011;46458;50.966;7.002;2023-04-03T07:45:50;4.70;;;1.40;;
20383;SDS011;46458;50.966;7.002;2023-04-03T07:48:19;1.50;;;1.30;;
20383;SDS011;46458;50.966;7.002;2023-04-03T07:50:49;3.90;;;1.60;;
20383;SDS011;46458;50.966;7.002;2023-04-03T07:53:18;2.67;;;1.40;;
20383;SDS011;46458;50.966;7.002;2023-04-03T07:55:52;1.73;;;1.07;;
20383;SDS011;46458;50.966;7.002;2023-04-03T07:58:22;3.07;;;1.40;;
20383;SDS011;46458;50.966;7.002;2023-04-03T08:00:51;4.70;;;1.77;;
20383;SDS011;46458;50.966;7.002;2023-04-03T08:03:20;2.17;;;1.37;;
20383;SDS011;46458;50.966;7.002;2023-04-03T08:05:49;5.10;;;1.70;;
20383;SDS011;46458;50.966;7.002;2023-04-03T08:08:19;4.57;;;1.57;;
20383;SDS011;46458;50.966;7.002;2023-04-03T08:10:52;2.97;;;1.40;;
20383;SDS011;46458;50.966;7.002;2023-04-03T08:13:22;2.43;;;1.33;;
20383;SDS011;46458;50.966;7.002;2023-04-03T08:15:51;3.13;;;1.40;;
20383;SDS011;46458;50.966;7.002;2023-04-03T08:18:24;3.97;;;1.63;;
20383;SDS011;46458;50.966;7.002;2023-04-03T08:20:53;4.27;;;1.40;;
20383;SDS011;46458;50.966;7.002;2023-04-03T08:23:22;1.97;;;1.20;;
20383;SDS011;46458;50.966;7.002;2023-04-03T08:25:54;2.57;;;1.40;;
20383;SDS011;46458;50.966;7.002;2023-04-03T08:28:23;3.43;;;1.43;;
20383;SDS011;46458;50.966;7.002;2023-04-03T08:30:52;2.37;;;1.40;;
20383;SDS011;46458;50.966;7.002;2023-04-03T08:33:21;3.30;;;1.63;;
20383;SDS011;46458;50.966;7.002;2023-04-03T08:35:50;3.67;;;1.60;;
20383;SDS011;46458;50.966;7.002;2023-04-03T08:38:19;3.63;;;1.60;;
20383;SDS011;46458;50.966;7.002;2023-04-03T08:40:48;2.20;;;1.57;;
20383;SDS011;46458;50.966;7.002;2023-04-03T08:43:47;5.23;;;1.30;;
20383;SDS011;46458;50.966;7.002;2023-04-03T08:46:35;3.87;;;1.30;;
20383;SDS011;46458;50.966;7.002;2023-04-03T08:49:17;2.10;;;1.33;;
20383;SDS011;46458;50.966;7.002;2023-04-03T08:51:56;3.63;;;1.73;;
20383;SDS011;46458;50.966;7.002;2023-04-03T08:54:28;2.40;;;1.03;;
20383;SDS011;46458;50.966;7.002;2023-04-03T08:57:03;2.17;;;1.30;;
20383;SDS011;46458;50.966;7.002;2023-04-03T08:59:34;2.00;;;1.27;;
20383;SDS011;46458;50.966;7.002;2023-04-03T09:02:13;3.17;;;1.03;;
20383;SDS011;46458;50.966;7.002;2023-04-03T09:04:52;2.03;;;1.10;;
20383;SDS011;46458;50.966;7.002;2023-04-03T09:07:22;4.23;;;1.10;;
20383;SDS011;46458;50.966;7.002;2023-04-03T09:10:01;2.37;;;1.10;;
20383;SDS011;46458;50.966;7.002;2023-04-03T09:12:37;1.53;;;0.80;;
20383;SDS011;46458;50.966;7.002;2023-04-03T09:15:10;5.00;;;1.53;;
20383;SDS011;46458;50.966;7.002;2023-04-03T09:17:50;2.03;;;1.10;;
20383;SDS011;46458;50.966;7.002;2023-04-03T09:20:31;2.17;;;1.20;;
20383;SDS011;46458;50.966;7.002;2023-04-03T09:23:12;1.27;;;0.90;;
20383;SDS011;46458;50.966;7.002;2023-04-03T09:25:46;2.83;;;1.37;;
20383;SDS011;46458;50.966;7.002;2023-04-03T09:28:18;2.23;;;1.43;;
20383;SDS011;46458;50.966;7.002;2023-04-03T09:30:47;5.87;;;1.90;;
20383;SDS011;46458;50.966;7.002;2023-04-03T09:33:22;3.07;;;1.57;;
20383;SDS011;46458;50.966;7.002;2023-04-03T09:35:51;2.23;;;1.10;;
20383;SDS011;46458;50.966;7.002;2023-04-03T09:38:20;4.70;;;2.00;;
20383;SDS011;46458;50.966;7.002;2023-04-03T09:41:02;3.40;;;1.47;;
20383;SDS011;46458;50.966;7.002;2023-04-03T09:43:36;4.17;;;1.80;;
20383;SDS011;46458;50.966;7.002;2023-04-03T09:46:24;3.00;;;1.17;;
20383;SDS011;46458;50.966;7.002;2023-04-03T09:48:57;2.47;;;1.17;;
20383;SDS011;46458;50.966;7.002;2023-04-03T09:51:27;2.87;;;1.60;;
20383;SDS011;46458;50.966;7.002;2023-04-03T09:53:57;3.17;;;1.10;;
20383;SDS011;46458;50.966;7.002;2023-04-03T09:56:27;1.13;;;0.80;;
20383;SDS011;46458;50.966;7.002;2023-04-03T09:59:12;2.60;;;1.57;;
20383;SDS011;46458;50.966;7.002;2023-04-03T10:01:43;1.93;;;1.17;;
20383;SDS011;46458;50.966;7.002;2023-04-03T10:04:27;1.30;;;0.83;;
20383;SDS011;46458;50.966;7.002;2023-04-03T10:09:58;1.80;;;0.97;;
20383;SDS011;46458;50.966;7.002;2023-04-03T10:12:29;1.83;;;0.90;;
20383;SDS011;46458;50.966;7.002;2023-04-03T10:15:01;1.50;;;0.77;;
20383;SDS011;46458;50.966;7.002;2023-04-03T10:17:33;2.03;;;1.10;;
20383;SDS011;46458;50.966;7.002;2023-04-03T10:20:18;3.20;;;1.00;;
20383;SDS011;46458;50.966;7.002;2023-04-03T10:23:00;2.37;;;1.00;;
20383;SDS011;46458;50.966;7.002;2023-04-03T10:25:47;1.53;;;0.83;;
20383;SDS011;46458;50.966;7.002;2023-04-03T10:28:27;1.37;;;0.87;;
20383;SDS011;46458;50.966;7.002;2023-04-03T10:31:06;2.53;;;1.20;;
20383;SDS011;46458;50.966;7.002;2023-04-03T10:33:48;3.73;;;1.67;;
20383;SDS011;46458;50.966;7.002;2023-04-03T10:36:27;2.13;;;0.90;;
20383;SDS011;46458;50.966;7.002;2023-04-03T10:39:06;1.43;;;0.80;;
20383;SDS011;46458;50.966;7.002;2023-04-03T10:41:46;3.77;;;1.77;;
20383;SDS011;46458;50.966;7.002;2023-04-03T10:44:27;3.00;;;1.83;;
20383;SDS011;46458;50.966;7.002;2023-04-03T10:47:09;5.13;;;1.30;;
20383;SDS011;46458;50.966;7.002;2023-04-03T10:49:46;2.57;;;1.20;;
20383;SDS011;46458;50.966;7.002;2023-04-03T10:52:23;2.77;;;1.33;;
20383;SDS011;46458;50.966;7.002;2023-04-03T10:54:59;3.27;;;1.40;;
20383;SDS011;46458;50.966;7.002;2023-04-03T10:57:36;1.63;;;1.07;;
20383;SDS011;46458;50.966;7.002;2023-04-03T11:00:06;1.57;;;1.20;;
20383;SDS011;46458;50.966;7.002;2023-04-03T11:02:48;2.73;;;1.30;;
20383;SDS011;46458;50.966;7.002;2023-04-03T11:05:25;1.47;;;1.00;;
20383;SDS011;46458;50.966;7.002;2023-04-03T11:08:01;2.30;;;0.90;;
20383;SDS011;46458;50.966;7.002;2023-04-03T11:10:40;1.50;;;0.80;;
20383;SDS011;46458;50.966;7.002;2023-04-03T11:13:13;1.43;;;0.60;;
20383;SDS011;46458;50.966;7.002;2023-04-03T11:15:45;2.37;;;0.77;;
20383;SDS011;46458;50.966;7.002;2023-04-03T11:18:17;3.20;;;0.80;;
20383;SDS011;46458;50.966;7.002;2023-04-03T11:20:52;1.23;;;0.90;;
20383;SDS011;46458;50.966;7.002;2023-04-03T11:23:30;1.40;;;0.77;;
20383;SDS011;46458;50.966;7.002;2023-04-03T11:26:07;1.27;;;0.80;;
20383;SDS011;46458;50.966;7.002;2023-04-03T11:28:38;1.70;;;1.00;;
20383;SDS011;46458;50.966;7.002;2023-04-03T11:31:10;1.13;;;0.80;;
20383;SDS011;46458;50.966;7.002;2023-04-03T11:33:55;2.03;;;0.90;;
20383;SDS011;46458;50.966;7.002;2023-04-03T11:36:33;1.60;;;0.83;;
20383;SDS011;46458;50.966;7.002;2023-04-03T11:39:10;2.53;;;0.90;;
20383;SDS011;46458;50.966;7.002;2023-04-03T11:41:48;3.07;;;1.03;;
20383;SDS011;46458;50.966;7.002;2023-04-03T11:44:29;2.47;;;1.40;;
20383;SDS011;46458;50.966;7.002;2023-04-03T11:47:04;1.43;;;0.80;;
20383;SDS011;46458;50.966;7.002;2023-04-03T11:53:03;2.33;;;0.90;;
20383;SDS011;46458;50.966;7.002;2023-04-03T12:01:44;3.67;;;1.33;;
20383;SDS011;46458;50.966;7.002;2023-04-03T12:04:17;2.30;;;1.30;;
20383;SDS011;46458;50.966;7.002;2023-04-03T12:06:58;1.70;;;1.00;;
20383;SDS011;46458;50.966;7.002;2023-04-03T12:24:32;1.63;;;0.87;;
20383;SDS011;46458;50.966;7.002;2023-04-03T12:27:03;1.83;;;1.13;;
20383;SDS011;46458;50.966;7.002;2023-04-03T12:29:38;4.27;;;0.97;;
20383;SDS011;46458;50.966;7.002;2023-04-03T12:32:14;2.27;;;0.80;;
20383;SDS011;46458;50.966;7.002;2023-04-03T12:34:56;1.23;;;0.80;;
20383;SDS011;46458;50.966;7.002;2023-04-03T12:37:41;1.03;;;0.77;;
20383;SDS011;46458;50.966;7.002;2023-04-03T12:40:23;2.20;;;0.90;;
20383;SDS011;46458;50.966;7.002;2023-04-03T12:43:02;1.30;;;0.80;;
20383;SDS011;46458;50.966;7.002;2023-04-03T12:45:46;2.50;;;0.90;;
20383;SDS011;46458;50.966;7.002;2023-04-03T12:48:22;1.47;;;0.90;;
20383;SDS011;46458;50.966;7.002;2023-04-03T12:50:54;1.03;;;0.67;;
20383;SDS011;46458;50.966;7.002;2023-04-03T12:53:25;1.33;;;0.80;;
20383;SDS011;46458;50.966;7.002;2023-04-03T12:56:18;0.70;;;0.53;;
20383;SDS011;46458;50.966;7.002;2023-04-03T12:58:48;2.93;;;0.77;;
20383;SDS011;46458;50.966;7.002;2023-04-03T13:01:19;3.00;;;0.87;;
20383;SDS011;46458;50.966;7.002;2023-04-03T13:03:53;4.93;;;1.70;;
20383;SDS011;46458;50.966;7.002;2023-04-03T13:06:24;3.30;;;1.37;;
20383;SDS011;46458;50.966;7.002;2023-04-03T13:08:56;2.73;;;1.30;;
20383;SDS011;46458;50.966;7.002;2023-04-03T13:11:30;1.67;;;1.00;;
20383;SDS011;46458;50.966;7.002;2023-04-03T13:14:12;2.50;;;1.03;;
20383;SDS011;46458;50.966;7.002;2023-04-03T13:16:53;1.47;;;0.93;;
20383;SDS011;46458;50.966;7.002;2023-04-03T13:19:23;2.10;;;1.00;;
20383;SDS011;46458;50.966;7.002;2023-04-03T13:21:55;1.60;;;0.80;;
20383;SDS011;46458;50.966;7.002;2023-04-03T13:24:28;2.33;;;1.00;;
20383;SDS011;46458;50.966;7.002;2023-04-03T13:27:01;1.70;;;1.20;;
20383;SDS011;46458;50.966;7.002;2023-04-03T13:29:32;2.87;;;1.20;;
20383;SDS011;46458;50.966;7.002;2023-04-03T13:32:03;1.73;;;1.00;;
20383;SDS011;46458;50.966;7.002;2023-04-03T13:34:35;3.13;;;1.00;;
20383;SDS011;46458;50.966;7.002;2023-04-03T13:37:06;5.10;;;1.47;;
20383;SDS011;46458;50.966;7.002;2023-04-03T13:39:56;2.20;;;1.10;;
20383;SDS011;46458;50.966;7.002;2023-04-03T13:42:30;2.23;;;1.10;;
20383;SDS011;46458;50.966;7.002;2023-04-03T13:47:55;2.83;;;1.30;;
20383;SDS011;46458;50.966;7.002;2023-04-03T13:50:49;1.63;;;0.90;;
20383;SDS011;46458;50.966;7.002;2023-04-03T13:53:25;2.77;;;1.10;;
20383;SDS011;46458;50.966;7.002;2023-04-03T13:55:56;1.70;;;1.10;;
20383;SDS011;46458;50.966;7.002;2023-04-03T13:58:37;3.20;;;1.77;;
20383;SDS011;46458;50.966;7.002;2023-04-03T14:01:10;2.63;;;1.30;;
20383;SDS011;46458;50.966;7.002;2023-04-03T14:03:46;3.03;;;1.17;;
20383;SDS011;46458;50.966;7.002;2023-04-03T14:06:19;2.43;;;1.60;;
20383;SDS011;46458;50.966;7.002;2023-04-03T14:08:49;2.97;;;1.50;;
20383;SDS011;46458;50.966;7.002;2023-04-03T14:11:18;1.40;;;1.00;;
20383;SDS011;46458;50.966;7.002;2023-04-03T14:13:51;1.80;;;1.13;;
20383;SDS011;46458;50.966;7.002;2023-04-03T14:16:23;2.13;;;1.05;;
20383;SDS011;46458;50.966;7.002;2023-04-03T14:18:55;2.23;;;1.33;;
20383;SDS011;46458;50.966;7.002;2023-04-03T14:21:24;2.70;;;1.47;;
20383;SDS011;46458;50.966;7.002;2023-04-03T14:23:53;2.50;;;1.23;;
20383;SDS011;46458;50.966;7.002;2023-04-03T14:26:22;3.63;;;1.60;;
20383;SDS011;46458;50.966;7.002;2023-04-03T14:28:55;2.90;;;1.48;;
20383;SDS011;46458;50.966;7.002;2023-04-03T14:31:24;1.48;;;1.02;;
20383;SDS011;46458;50.966;7.002;2023-04-03T14:33:53;2.00;;;1.00;;
20383;SDS011;46458;50.966;7.002;2023-04-03T14:36:22;2.67;;;1.30;;
20383;SDS011;46458;50.966;7.002;2023-04-03T14:38:53;3.78;;;2.28;;
20383;SDS011;46458;50.966;7.002;2023-04-03T14:41:24;2.15;;;1.30;;
20383;SDS011;46458;50.966;7.002;2023-04-03T14:43:56;2.13;;;1.10;;
20383;SDS011;46458;50.966;7.002;2023-04-03T14:46:26;3.35;;;1.95;;
20383;SDS011;46458;50.966;7.002;2023-04-03T14:48:57;3.15;;;1.60;;
20383;SDS011;46458;50.966;7.002;2023-04-03T14:51:26;2.85;;;1.48;;
20383;SDS011;46458;50.966;7.002;2023-04-03T14:53:56;3.03;;;1.20;;
20383;SDS011;46458;50.966;7.002;2023-04-03T14:56:26;4.45;;;2.78;;
20383;SDS011;46458;50.966;7.002;2023-04-03T14:59:00;2.92;;;1.58;;
20383;SDS011;46458;50.966;7.002;2023-04-03T15:01:30;3.08;;;1.83;;
20383;SDS011;46458;50.966;7.002;2023-04-03T15:03:58;2.88;;;1.60;;
20383;SDS011;46458;50.966;7.002;2023-04-03T15:06:27;4.68;;;2.17;;
20383;SDS011;46458;50.966;7.002;2023-04-03T15:09:03;2.20;;;1.23;;
20383;SDS011;46458;50.966;7.002;2023-04-03T15:11:32;1.63;;;1.08;;
20383;SDS011;46458;50.966;7.002;2023-04-03T15:14:03;1.58;;;1.13;;
20383;SDS011;46458;50.966;7.002;2023-04-03T15:16:32;1.88;;;1.40;;
20383;SDS011;46458;50.966;7.002;2023-04-03T15:19:04;2.22;;;1.27;;
20383;SDS011;46458;50.966;7.002;2023-04-03T15:21:33;2.20;;;1.23;;
20383;SDS011;46458;50.966;7.002;2023-04-03T15:24:02;2.30;;;1.25;;
20383;SDS011;46458;50.966;7.002;2023-04-03T15:26:34;1.63;;;1.23;;
20383;SDS011;46458;50.966;7.002;2023-04-03T15:29:05;2.53;;;1.58;;
20383;SDS011;46458;50.966;7.002;2023-04-03T15:31:34;2.65;;;2.10;;
20383;SDS011;46458;50.966;7.002;2023-04-03T15:34:03;3.22;;;1.67;;
20383;SDS011;46458;50.966;7.002;2023-04-03T15:36:32;3.08;;;1.90;;
20383;SDS011;46458;50.966;7.002;2023-04-03T15:39:01;3.47;;;1.83;;
20383;SDS011;46458;50.966;7.002;2023-04-03T15:41:30;5.50;;;3.60;;
20383;SDS011;46458;50.966;7.002;2023-04-03T15:43:59;4.10;;;2.45;;
20383;SDS011;46458;50.966;7.002;2023-04-03T15:46:30;2.40;;;1.50;;
20383;SDS011;46458;50.966;7.002;2023-04-03T15:49:01;3.80;;;1.52;;
20383;SDS011;46458;50.966;7.002;2023-04-03T15:51:32;2.20;;;1.42;;